Time;durP1;ratioP1;P1;durP2;ratioP2;P2;SDS_P1;SDS_P2;PMS_P1;PMS_P2;Temp;Humidity;BMP_temperature;BMP_pressure;BME280_temperature;BME280_humidity;BME280_pressure;Samples;Min_cycle;Max_cycle;Signal;HPM_P1;HPM_P2
2021/12/21 00:04:13;;;;;;;6.47;3.65;;;;;;;1.04;54.25;97818.59;10275214;28;20041;-57
2021/12/21 00:09:12;;;;;;;6.88;4.20;;;;;;;0.99;54.05;97829.44;10274881;28;20034;-57
2021/12/21 00:24:22;;;;;;;6.70;3.40;;;;;;;1.04;54.01;97843.31;10286241;28;20136;-58
2021/12/21 00:29:21;;;;;;;7.75;3.25;;;;;;;1.00;53.87;97831.22;10285311;28;20166;-57
2021/12/21 00:34:22;;;;;;;6.40;3.95;;;;;;;1.02;53.70;97848.34;10257314;28;20485;-57
2021/12/21 00:39:21;;;;;;;8.35;3.85;;;;;;;1.01;53.11;97848.28;10257090;28;20077;-57
2021/12/21 00:44:19;;;;;;;5.78;3.22;;;;;;;1.00;52.81;97854.22;10257284;28;20027;-57
2021/12/21 00:49:21;;;;;;;5.80;3.53;;;;;;;1.04;52.91;97851.81;10257038;28;20113;-57
2021/12/21 00:54:20;;;;;;;7.97;4.20;;;;;;;1.07;53.18;97854.50;10278310;28;20456;-57
2021/12/21 00:59:19;;;;;;;7.55;4.60;;;;;;;1.00;53.16;97856.75;10296371;28;20085;-58
2021/12/21 01:04:26;;;;;;;6.70;3.90;;;;;;;0.87;53.51;97850.28;10297604;28;20065;-58
2021/12/21 01:15:04;;;;;;;6.55;3.50;;;;;;;0.87;53.80;97850.28;10296694;28;20058;-58
2021/12/21 01:20:09;;;;;;;8.68;4.18;;;;;;;0.83;54.38;97863.78;10295030;28;20064;-57
2021/12/21 01:35:15;;;;;;;6.78;4.07;;;;;;;0.84;54.52;97861.28;10296441;28;20500;-57
2021/12/21 01:50:42;;;;;;;7.65;4.05;;;;;;;0.89;55.59;97884.44;10296222;28;20069;-57
2021/12/21 01:55:42;;;;;;;8.02;4.20;;;;;;;0.72;55.62;97865.91;10294752;28;20022;-57
2021/12/21 02:00:41;;;;;;;8.07;4.13;;;;;;;0.54;55.60;97867.72;10294053;28;20502;-58
2021/12/21 02:05:40;;;;;;;6.65;4.22;;;;;;;0.52;55.79;97870.22;10294956;28;20131;-58
2021/12/21 02:10:40;;;;;;;7.50;4.05;;;;;;;0.64;56.68;97885.19;10294431;28;20483;-57
2021/12/21 02:15:39;;;;;;;8.20;4.53;;;;;;;0.60;57.05;97886.72;10294300;28;20049;-58
2021/12/21 02:20:49;;;;;;;9.13;4.72;;;;;;;0.64;57.08;97880.06;10294503;28;20473;-57
2021/12/21 02:30:55;;;;;;;9.80;5.57;;;;;;;0.64;58.07;97887.75;10294311;28;20064;-58
2021/12/21 02:35:57;;;;;;;11.48;5.88;;;;;;;0.47;58.50;97877.72;10292345;28;20065;-57
2021/12/21 02:40:56;;;;;;;9.60;6.50;;;;;;;0.54;58.40;97877.94;10291542;28;20057;-57
2021/12/21 02:45:55;;;;;;;9.02;5.25;;;;;;;0.50;58.26;97879.53;10291477;28;20038;-57
2021/12/21 02:50:54;;;;;;;6.97;4.88;;;;;;;0.47;58.24;97877.72;10292191;28;20072;-57
2021/12/21 02:55:54;;;;;;;7.00;4.25;;;;;;;0.49;57.72;97877.75;10293341;28;20021;-57
2021/12/21 03:00:54;;;;;;;9.13;5.00;;;;;;;0.48;57.72;97871.78;10292673;28;20141;-57
2021/12/21 03:05:56;;;;;;;8.68;5.18;;;;;;;0.56;57.44;97877.19;10292069;28;20060;-57
2021/12/21 03:11:11;;;;;;;8.73;4.88;;;;;;;0.51;57.41;97865.06;10291458;28;20057;-57
2021/12/21 03:16:10;;;;;;;7.45;4.50;;;;;;;0.59;57.39;97866.22;10290441;28;20493;-58
2021/12/21 03:21:11;;;;;;;6.80;4.72;;;;;;;0.67;57.35;97878.50;10290512;28;20065;-57
2021/12/21 03:26:10;;;;;;;7.28;4.70;;;;;;;0.72;57.06;97883.78;10290731;28;20069;-57
2021/12/21 03:31:10;;;;;;;8.60;4.82;;;;;;;0.68;56.59;97876.81;10288378;28;20890;-57
2021/12/21 03:36:09;;;;;;;10.32;4.97;;;;;;;0.64;56.04;97885.19;10287711;28;20072;-57
2021/12/21 03:41:13;;;;;;;10.45;5.50;;;;;;;0.64;56.07;97880.94;10290254;28;20528;-57
2021/12/21 03:46:14;;;;;;;7.82;4.53;;;;;;;0.60;55.75;97878.19;10289244;28;20061;-57
2021/12/21 03:51:17;;;;;;;7.80;4.47;;;;;;;0.53;54.97;97883.88;10294171;28;20060;-57
2021/12/21 04:01:30;;;;;;;8.57;4.20;;;;;;;0.43;54.98;97898.81;10298847;28;20084;-58
2021/12/21 04:06:31;;;;;;;8.27;4.40;;;;;;;0.33;54.28;97894.13;10299056;28;20061;-57
2021/12/21 04:11:30;;;;;;;8.10;4.03;;;;;;;0.24;54.45;97903.94;10299555;28;20057;-57
2021/12/21 04:16:29;;;;;;;6.82;4.00;;;;;;;0.09;54.14;97911.84;10298484;28;20057;-57
2021/12/21 04:21:29;;;;;;;5.78;3.20;;;;;;;-0.09;54.66;97899.16;10295573;28;20057;-57
2021/12/21 04:26:28;;;;;;;5.82;3.88;;;;;;;-0.06;54.45;97912.06;10297483;28;20061;-57
2021/12/21 04:31:27;;;;;;;7.72;3.95;;;;;;;-0.09;54.93;97917.03;10297738;28;20018;-57
2021/12/21 04:36:27;;;;;;;8.02;3.67;;;;;;;-0.23;55.52;97910.44;10296673;28;20025;-57
2021/12/21 04:41:28;;;;;;;6.88;3.97;;;;;;;-0.23;55.28;97918.09;10295332;28;20069;-57
2021/12/21 04:46:27;;;;;;;7.90;4.57;;;;;;;-0.30;55.34;97936.50;10297226;28;20057;-57
2021/12/21 04:51:26;;;;;;;8.32;4.75;;;;;;;-0.40;56.24;97940.31;10297762;28;20127;-57
2021/12/21 04:56:25;;;;;;;8.00;4.80;;;;;;;-0.56;56.50;97938.75;10297683;28;20100;-57
2021/12/21 05:01:24;;;;;;;10.48;4.95;;;;;;;-0.66;56.70;97936.59;10295230;28;20048;-57
2021/12/21 05:06:23;;;;;;;8.82;4.82;;;;;;;-0.77;57.22;97932.66;10293250;28;20771;-57
2021/12/21 05:11:31;;;;;;;8.20;4.15;;;;;;;-0.85;57.32;97945.06;10295631;28;20030;-57
2021/12/21 05:16:30;;;;;;;5.93;3.45;;;;;;;-0.93;57.20;97949.81;10295693;28;20042;-57
2021/12/21 05:21:30;;;;;;;7.13;3.70;;;;;;;-1.03;58.01;97951.03;10294686;28;20032;-57
2021/12/21 05:26:29;;;;;;;8.73;3.70;;;;;;;-1.06;58.13;97942.38;10296263;28;20069;-57
2021/12/21 05:31:28;;;;;;;6.95;3.50;;;;;;;-1.10;57.68;97954.06;10296600;28;20061;-57
2021/12/21 05:36:27;;;;;;;7.00;3.55;;;;;;;-1.10;58.07;97968.50;10294907;28;20034;-57
2021/12/21 05:41:46;;;;;;;7.38;3.83;;;;;;;-1.11;58.40;97961.66;10283046;28;20092;-58
2021/12/21 05:46:46;;;;;;;5.43;3.30;;;;;;;-1.22;58.72;97971.31;10269403;28;20057;-58
2021/12/21 05:51:46;;;;;;;6.80;4.05;;;;;;;-1.16;58.80;97991.13;10293155;28;20140;-57
2021/12/21 05:56:45;;;;;;;6.38;3.40;;;;;;;-1.18;57.80;98002.91;10257831;28;20057;-58
2021/12/21 06:01:46;;;;;;;7.55;3.78;;;;;;;-1.17;58.10;98002.97;10280262;28;20077;-58
2021/12/21 06:06:45;;;;;;;7.43;4.32;;;;;;;-1.16;58.74;98008.97;10292341;28;20513;-57
2021/12/21 06:12:04;;;;;;;9.30;4.95;;;;;;;-1.31;58.52;97984.47;10292797;28;20077;-57
2021/12/21 06:27:26;;;;;;;7.55;4.22;;;;;;;-1.18;58.80;98041.09;10253265;28;20057;-57
2021/12/21 06:32:25;;;;;;;;;;;;;;;-1.12;57.96;98026.09;10306469;28;20516;-57
2021/12/21 06:37:24;;;;;;;8.25;4.60;;;;;;;-1.07;57.59;98032.28;10330928;28;20735;-57
2021/12/21 06:42:24;;;;;;;9.45;4.97;;;;;;;-0.99;57.47;98040.34;10334407;28;20061;-57
2021/12/21 06:52:41;;;;;;;12.48;5.47;;;;;;;-0.92;56.93;98061.06;10329088;28;20489;-57
2021/12/21 06:57:43;;;;;;;;;;;;;;;-0.86;56.63;98063.94;10328375;28;20053;-57
2021/12/21 07:02:42;;;;;;;5.63;3.53;;;;;;;-0.75;56.20;98074.63;10310395;28;19964;-57
2021/12/21 07:07:42;;;;;;;5.88;3.35;;;;;;;-0.60;56.09;98084.69;10329784;28;20056;-57
2021/12/21 07:22:58;;;;;;;7.15;4.32;;;;;;;-0.27;55.07;98092.19;10291779;28;20065;-57
2021/12/21 07:27:57;;;;;;;7.45;4.30;;;;;;;-0.15;54.67;98095.31;10297303;28;20033;-58
2021/12/21 07:32:56;;;;;;;;;;;;;;;0.05;54.33;98107.31;10299018;28;20069;-58
2021/12/21 07:37:55;;;;;;;10.65;5.10;;;;;;;0.17;53.67;98108.66;10310158;28;20031;-57
2021/12/21 07:42:54;;;;;;;10.50;4.50;;;;;;;0.27;53.48;98105.72;10317409;28;20088;-58
2021/12/21 07:47:53;;;;;;;12.43;6.38;;;;;;;0.36;52.79;98101.03;10300456;28;20034;-58
2021/12/21 07:52:54;;;;;;;10.43;5.20;;;;;;;0.54;51.07;98112.84;10306345;28;20056;-58
2021/12/21 07:57:53;;;;;;;13.50;5.38;;;;;;;0.63;49.47;98114.13;10331599;28;20805;-58
2021/12/21 08:02:54;;;;;;;15.00;5.72;;;;;;;0.75;49.49;98111.22;10319246;28;20533;-57
2021/12/21 08:07:57;;;;;;;12.70;6.03;;;;;;;0.98;49.39;98116.47;10303568;28;20568;-58
2021/12/21 08:12:57;;;;;;;9.38;4.65;;;;;;;0.95;46.62;98113.78;10293453;28;20060;-57
2021/12/21 08:17:55;;;;;;;;;;;;;;;1.27;46.06;98107.44;10319106;28;20464;-57
2021/12/21 08:22:54;;;;;;;6.25;3.25;;;;;;;1.43;44.00;98109.81;10327180;28;20296;-57
2021/12/21 08:27:58;;;;;;;8.52;5.68;;;;;;;1.47;43.96;98124.47;10311781;28;20078;-58
2021/12/21 08:32:57;;;;;;;6.78;3.33;;;;;;;1.56;44.44;98118.00;10328563;28;20061;-57
2021/12/21 08:38:07;;;;;;;6.50;3.72;;;;;;;1.65;43.32;98129.47;10334673;28;20060;-57
2021/12/21 08:43:12;;;;;;;8.63;4.75;;;;;;;1.78;44.31;98127.38;10305582;28;20497;-57
2021/12/21 08:48:12;;;;;;;10.15;5.03;;;;;;;1.89;44.37;98138.94;10297346;28;20076;-57
2021/12/21 08:53:13;;;;;;;8.10;3.80;;;;;;;1.97;45.19;98134.97;10295344;28;20065;-57
2021/12/21 08:58:12;;;;;;;8.80;5.07;;;;;;;2.17;45.44;98144.28;10302858;28;20131;-57
2021/12/21 09:03:12;;;;;;;9.60;4.75;;;;;;;2.41;45.50;98137.47;10336976;28;20089;-57
2021/12/21 09:08:11;;;;;;;10.80;5.22;;;;;;;2.21;43.87;98146.97;10323087;28;20091;-57
2021/12/21 09:13:11;;;;;;;;;;;;;;;2.49;45.00;98143.75;10331504;28;20048;-57
2021/12/21 09:18:10;;;;;;;12.88;7.45;;;;;;;2.44;43.36;98140.13;10316475;28;19948;-57
2021/12/21 09:23:09;;;;;;;;;;;;;;;2.17;40.78;98149.41;10297159;28;20065;-57
2021/12/21 09:28:08;;;;;;;11.77;4.93;;;;;;;2.40;41.13;98144.28;10297653;28;19919;-58
2021/12/21 09:33:07;;;;;;;;;;;;;;;2.06;36.83;98137.88;10294678;28;20064;-57
2021/12/21 09:38:06;;;;;;;7.35;4.03;;;;;;;1.81;37.44;98119.81;10314443;28;19924;-58
2021/12/21 09:43:09;;;;;;;7.95;3.80;;;;;;;2.14;38.91;98133.06;10316373;28;20120;-60
2021/12/21 09:48:08;;;;;;;7.68;4.57;;;;;;;2.24;40.84;98140.28;10317604;28;20135;-58
2021/12/21 09:53:07;;;;;;;8.00;3.72;;;;;;;2.22;39.00;98147.03;10313828;28;20128;-58
2021/12/21 09:58:07;;;;;;;55.22;26.05;;;;;;;2.16;41.61;98149.34;10316277;28;20120;-58
2021/12/21 10:03:09;;;;;;;20.50;10.07;;;;;;;1.93;41.84;98140.81;10317282;28;20140;-58
2021/12/21 10:08:11;;;;;;;40.75;20.65;;;;;;;1.66;37.57;98154.22;10315719;28;20144;-58
2021/12/21 10:13:13;;;;;;;13.90;7.10;;;;;;;1.57;36.98;98153.84;10325859;28;20128;-58
2021/12/21 10:18:14;;;;;;;17.15;7.88;;;;;;;1.53;37.28;98149.44;10357051;28;20163;-58
2021/12/21 10:23:20;;;;;;;7.32;5.10;;;;;;;1.51;37.94;98149.38;10356330;28;20119;-57
2021/12/21 10:28:34;;;;;;;4.38;2.78;;;;;;;1.65;37.50;98138.84;10357102;28;20055;-57
2021/12/21 10:33:35;;;;;;;8.25;5.18;;;;;;;2.15;39.74;98153.59;10356420;28;20119;-58
2021/12/21 10:38:53;;;;;;;6.45;2.92;;;;;;;1.96;36.09;98134.09;10353959;28;20817;-57
2021/12/21 10:44:07;;;;;;;7.30;4.18;;;;;;;2.19;38.02;98135.81;10356009;28;20131;-57
2021/12/21 10:49:19;;;;;;;7.78;4.10;;;;;;;2.07;38.50;98128.53;10351356;28;20124;-58
2021/12/21 10:54:42;;;;;;;5.25;3.15;;;;;;;2.28;39.14;98151.53;10355404;28;20107;-57
2021/12/21 10:59:45;;;;;;;9.57;4.47;;;;;;;2.27;38.05;98158.31;10355244;28;20132;-58
2021/12/21 11:04:48;;;;;;;12.75;5.90;;;;;;;1.75;36.15;98154.59;10354530;28;20123;-57
2021/12/21 11:10:15;;;;;;;8.93;3.10;;;;;;;1.53;35.94;98152.00;10353456;28;20108;-57
2021/12/21 11:15:19;;;;;;;7.28;3.33;;;;;;;1.57;36.22;98168.31;10352525;28;20119;-57
2021/12/21 11:20:18;;;;;;;4.43;2.72;;;;;;;1.35;35.32;98159.78;10351253;28;21323;-57
2021/12/21 11:25:17;;;;;;;9.70;4.60;;;;;;;1.31;36.84;98142.56;10347622;28;20764;-57
2021/12/21 11:30:20;;;;;;;4.63;2.42;;;;;;;1.30;35.57;98163.84;10352392;28;20119;-58
2021/12/21 11:40:26;;;;;;;6.97;3.95;;;;;;;1.51;35.42;98135.72;10355157;28;20970;-57
2021/12/21 11:45:34;;;;;;;7.40;4.35;;;;;;;1.77;35.35;98146.13;10355279;28;20144;-58
2021/12/21 11:50:33;;;;;;;17.60;7.63;;;;;;;1.75;34.80;98144.34;10352896;28;20039;-57
2021/12/21 11:55:33;;;;;;;;;;;;;;;1.95;34.65;98142.59;10355000;28;20210;-58
2021/12/21 12:00:35;;;;;;;10.00;5.45;;;;;;;2.02;34.17;98141.16;10354657;28;20817;-57
2021/12/21 12:05:34;;;;;;;5.13;2.22;;;;;;;2.05;33.49;98087.50;10355966;28;20148;-57
2021/12/21 12:10:37;;;;;;;4.72;2.35;;;;;;;2.57;33.05;98153.47;10357389;28;20124;-57
2021/12/21 12:15:51;;;;;;;8.27;4.57;;;;;;;2.73;33.64;98161.72;10363401;28;20144;-57
2021/12/21 12:20:50;;;;;;;7.53;3.47;;;;;;;2.64;35.49;98154.56;10362828;28;20499;-57
2021/12/21 12:25:54;;;;;;;;;;;;;;;2.20;37.26;98169.13;10364990;28;20951;-57
2021/12/21 12:30:54;;;;;;;15.65;8.32;;;;;;;1.91;37.35;98170.56;10363769;28;20017;-58
2021/12/21 12:36:02;;;;;;;22.45;10.48;;;;;;;1.67;35.49;98190.91;10362316;28;20145;-57
2021/12/21 12:41:03;;;;;;;21.17;12.13;;;;;;;1.47;35.98;98198.63;10362886;28;20986;-57
2021/12/21 12:46:06;;;;;;;18.60;11.25;;;;;;;1.42;36.24;98192.47;10359047;28;21041;-57
2021/12/21 12:51:07;;;;;;;12.68;5.00;;;;;;;1.28;36.23;98196.13;10362514;28;20133;-57
2021/12/21 12:56:08;;;;;;;11.93;5.50;;;;;;;1.21;36.99;98200.09;10363560;28;20111;-57
2021/12/21 13:01:22;;;;;;;20.63;11.13;;;;;;;1.39;37.44;98194.91;10359138;28;20123;-57
2021/12/21 13:06:33;;;;;;;47.53;17.77;;;;;;;1.17;37.29;98198.22;10360809;28;20118;-58
2021/12/21 13:11:34;;;;;;;122.75;51.75;;;;;;;0.96;37.69;98205.81;10360396;28;20160;-58
2021/12/21 13:16:35;;;;;;;106.47;49.47;;;;;;;0.91;37.99;98220.09;10358523;28;20039;-58
2021/12/21 13:21:47;;;;;;;60.13;35.05;;;;;;;0.90;37.46;98203.88;10360316;28;20583;-58
2021/12/21 13:26:51;;;;;;;17.65;11.25;;;;;;;0.87;38.39;98218.19;10361004;28;20109;-57
2021/12/21 13:31:53;;;;;;;14.02;7.88;;;;;;;0.88;38.95;98219.97;10357112;28;20066;-57
2021/12/21 13:36:54;;;;;;;27.05;17.48;;;;;;;0.84;39.75;98223.16;10356003;28;20450;-57
2021/12/21 13:42:01;;;;;;;55.72;29.77;;;;;;;1.06;40.01;98231.00;10357770;28;20139;-57
2021/12/21 13:47:22;;;;;;;29.15;14.90;;;;;;;1.09;39.77;98238.78;10356367;28;20132;-57
2021/12/21 13:52:23;;;;;;;23.85;12.23;;;;;;;1.27;39.70;98248.03;10356025;28;20128;-58
2021/12/21 13:57:25;;;;;;;16.98;8.00;;;;;;;1.36;39.77;98242.47;10352285;28;20182;-57
2021/12/21 14:02:34;;;;;;;15.18;8.95;;;;;;;1.37;39.70;98269.81;10354307;28;20045;-57
2021/12/21 14:07:37;;;;;;;21.92;14.10;;;;;;;1.13;41.36;98273.03;10357615;28;20131;-57
2021/12/21 14:12:37;;;;;;;21.30;13.43;;;;;;;1.13;41.01;98272.13;10355068;28;20120;-57
2021/12/21 14:17:36;;;;;;;;;;;;;;;1.18;42.13;98286.88;10358901;28;20111;-57
2021/12/21 14:22:37;;;;;;;49.05;27.85;;;;;;;1.11;42.87;98278.06;10356726;28;19917;-57
2021/12/21 14:27:36;;;;;;;26.20;15.27;;;;;;;0.87;43.17;98290.63;10366883;28;20120;-57
2021/12/21 14:33:06;;;;;;;26.08;14.32;;;;;;;0.86;43.40;98277.78;10357849;28;20044;-57
2021/12/21 14:38:23;;;;;;;11.18;7.72;;;;;;;0.51;43.77;98283.81;10355083;28;20116;-57
2021/12/21 14:43:31;;;;;;;19.38;10.20;;;;;;;0.37;43.51;98296.78;10358301;28;20107;-57
2021/12/21 14:48:29;;;;;;;18.40;11.57;;;;;;;0.14;43.13;98297.38;10358104;28;20131;-57
2021/12/21 14:53:39;;;;;;;14.65;7.95;;;;;;;0.10;42.78;98300.56;10355613;28;20056;-57
2021/12/21 14:58:38;;;;;;;;;;;;;;;0.00;42.75;98300.09;10356979;28;20124;-57
2021/12/21 15:03:39;;;;;;;27.88;15.63;;;;;;;-0.04;43.16;98313.53;10355496;28;20023;-57
2021/12/21 15:08:38;;;;;;;22.13;13.75;;;;;;;-0.13;43.81;98313.06;10355092;28;20112;-57
2021/12/21 15:13:37;;;;;;;21.23;12.30;;;;;;;-0.12;43.50;98317.38;10353593;28;20052;-57
2021/12/21 15:18:36;;;;;;;22.95;11.82;;;;;;;-0.13;44.00;98328.38;10352389;28;20037;-57
2021/12/21 15:23:35;;;;;;;22.55;14.27;;;;;;;-0.51;44.37;98309.47;10355521;28;20460;-58
2021/12/21 15:28:34;;;;;;;22.52;13.63;;;;;;;-0.52;46.35;98338.28;10356232;28;20044;-57
2021/12/21 15:33:33;;;;;;;30.70;17.10;;;;;;;-0.61;47.19;98341.22;10349016;28;20135;-57
2021/12/21 15:38:33;;;;;;;32.40;18.80;;;;;;;-0.68;46.87;98354.44;10355345;28;20040;-57
2021/12/21 15:43:37;;;;;;;17.15;9.38;;;;;;;-0.76;48.59;98372.72;10353781;28;20111;-57
2021/12/21 15:48:36;;;;;;;21.33;13.55;;;;;;;-0.82;49.05;98374.09;10353576;28;20116;-57
2021/12/21 15:53:35;;;;;;;31.48;19.02;;;;;;;-0.76;49.94;98388.00;10352402;28;20116;-57
2021/12/21 15:58:34;;;;;;;37.95;21.02;;;;;;;-0.92;50.34;98381.19;10354935;28;20033;-57
2021/12/21 16:03:37;;;;;;;23.63;14.02;;;;;;;-0.80;50.42;98405.66;10353114;28;20159;-57
2021/12/21 16:08:37;;;;;;;20.85;9.80;;;;;;;-0.72;50.25;98411.19;10354502;28;20036;-57
2021/12/21 16:13:36;;;;;;;23.27;13.98;;;;;;;-0.69;50.23;98416.44;10352364;28;20131;-57
2021/12/21 16:18:35;;;;;;;14.20;9.52;;;;;;;-0.64;49.81;98416.69;10349686;28;20025;-57
2021/12/21 16:23:34;;;;;;;32.30;20.90;;;;;;;-0.76;50.20;98399.06;10353269;28;20037;-57
2021/12/21 16:28:33;;;;;;;30.27;18.48;;;;;;;-0.70;50.62;98418.88;10351789;28;20374;-57
2021/12/21 16:33:32;;;;;;;29.00;16.42;;;;;;;-0.69;50.96;98420.66;10350545;28;20190;-57
2021/12/21 16:38:31;;;;;;;27.15;14.65;;;;;;;-1.16;50.52;98340.00;10351928;28;20651;-57
2021/12/21 16:43:33;;;;;;;32.40;17.45;;;;;;;-0.73;51.60;98423.81;10352617;28;20040;-57
2021/12/21 16:48:33;;;;;;;29.67;17.95;;;;;;;-0.88;50.45;98414.56;10351067;28;20071;-57
2021/12/21 16:53:33;;;;;;;10.80;6.05;;;;;;;-1.04;48.39;98411.97;10353075;28;20112;-57
2021/12/21 16:58:35;;;;;;;14.77;7.47;;;;;;;-1.06;48.51;98414.44;10353525;28;20047;-57
2021/12/21 17:03:34;;;;;;;11.48;7.57;;;;;;;-1.09;47.89;98418.50;10361274;28;20565;-57
2021/12/21 17:08:41;;;;;;;10.05;5.22;;;;;;;-1.00;47.80;98426.63;10360503;28;20048;-58
2021/12/21 17:13:40;;;;;;;16.23;9.20;;;;;;;-1.15;48.16;98423.22;10360279;28;20128;-58
2021/12/21 17:18:39;;;;;;;50.92;26.77;;;;;;;-1.05;48.04;98435.66;10360428;28;20378;-57
2021/12/21 17:23:38;;;;;;;49.00;28.83;;;;;;;-0.99;48.52;98437.69;10359840;28;20140;-58
2021/12/21 17:28:37;;;;;;;;;;;;;;;-0.97;48.72;98442.09;10359802;28;20120;-58
2021/12/21 17:33:38;;;;;;;20.67;13.23;;;;;;;-0.96;48.22;98445.50;10358558;28;19923;-58
2021/12/21 17:38:40;;;;;;;19.90;12.98;;;;;;;-1.07;48.84;98443.25;10359063;28;20899;-58
2021/12/21 17:43:40;;;;;;;38.90;24.90;;;;;;;-1.13;48.20;98457.31;10356140;28;20039;-58
2021/12/21 17:48:39;;;;;;;34.65;19.17;;;;;;;-1.19;47.63;98472.22;10358919;28;20033;-58
2021/12/21 17:53:38;;;;;;;34.88;20.52;;;;;;;-1.28;48.40;98467.47;10358779;28;21047;-57
2021/12/21 17:58:37;;;;;;;;;;;;;;;-1.34;49.01;98456.97;10356401;28;20148;-57
2021/12/21 18:03:36;;;;;;;56.72;30.75;;;;;;;-1.48;48.72;98458.72;10358736;28;20055;-58
2021/12/21 18:08:35;;;;;;;39.38;22.35;;;;;;;-1.45;48.93;98484.34;10356983;28;20530;-57
2021/12/21 18:13:34;;;;;;;39.03;20.13;;;;;;;-1.44;48.51;98486.13;10357264;28;20112;-57
2021/12/21 18:18:33;;;;;;;43.05;21.42;;;;;;;-1.49;49.18;98490.94;10358148;28;20124;-57
2021/12/21 18:23:32;;;;;;;38.40;19.85;;;;;;;-1.38;48.68;98489.00;10356109;28;20041;-57
2021/12/21 18:28:31;;;;;;;39.55;23.08;;;;;;;-1.35;49.37;98491.75;10355578;28;20043;-58
2021/12/21 18:33:33;;;;;;;39.30;22.58;;;;;;;-1.43;48.60;98492.97;10354948;28;20045;-57
2021/12/21 18:38:41;;;;;;;49.38;27.23;;;;;;;-1.46;48.70;98487.69;10356597;28;20111;-57
2021/12/21 18:43:40;;;;;;;45.90;27.30;;;;;;;-1.34;48.54;98503.66;10356872;28;20136;-57
2021/12/21 18:48:42;;;;;;;69.25;39.45;;;;;;;-1.30;48.66;98500.53;10357367;28;20044;-57
2021/12/21 18:53:41;;;;;;;69.75;40.22;;;;;;;-1.28;49.56;98503.13;10354249;28;20701;-57
2021/12/21 18:58:40;;;;;;;79.63;45.58;;;;;;;-1.30;49.72;98507.28;10357739;28;20936;-58
2021/12/21 19:03:39;;;;;;;79.53;42.40;;;;;;;-1.38;49.44;98517.00;10357442;28;20045;-57
2021/12/21 19:08:39;;;;;;;99.07;55.95;;;;;;;-1.55;50.80;98510.06;10355939;28;20036;-57
2021/12/21 19:13:38;;;;;;;;;;;;;;;-1.59;51.18;98515.75;10357441;28;20127;-57
2021/12/21 19:18:36;;;;;;;83.57;46.30;;;;;;;-1.73;50.57;98523.44;10357231;28;19920;-57
2021/12/21 19:23:35;;;;;;;89.18;50.70;;;;;;;-1.90;51.12;98524.13;10352608;28;20036;-57
2021/12/21 19:28:34;;;;;;;116.00;68.93;;;;;;;-2.00;51.38;98534.53;10354725;28;20048;-57
2021/12/21 19:33:35;;;;;;;86.13;50.47;;;;;;;-2.25;52.42;98525.41;10354092;28;20029;-57
2021/12/21 19:38:34;;;;;;;63.83;37.20;;;;;;;-2.25;53.11;98534.69;10351625;28;20128;-58
2021/12/21 19:43:33;;;;;;;67.07;41.03;;;;;;;-2.47;54.40;98532.50;10352336;28;20043;-57
2021/12/21 19:48:32;;;;;;;53.80;30.15;;;;;;;-2.59;55.96;98543.66;10352719;28;20037;-57
2021/12/21 19:53:31;;;;;;;48.03;28.25;;;;;;;-2.70;56.63;98542.09;10353399;28;20079;-58
2021/12/21 19:58:33;;;;;;;41.45;24.60;;;;;;;-2.72;56.61;98552.13;10354375;28;20147;-58
2021/12/21 20:03:33;;;;;;;38.22;23.58;;;;;;;-2.80;57.40;98566.03;10349146;28;20083;-57
2021/12/21 20:08:32;;;;;;;68.13;39.90;;;;;;;-2.93;58.53;98551.66;10353311;28;20484;-57
2021/12/21 20:13:31;;;;;;;;;;;;;;;-3.11;58.45;98573.28;10356282;28;20151;-57
2021/12/21 20:18:30;;;;;;;38.38;20.63;;;;;;;-3.16;58.01;98582.28;10350934;28;19924;-57
2021/12/21 20:23:29;;;;;;;34.80;19.52;;;;;;;-3.62;57.83;98537.00;10351890;28;20160;-57
2021/12/21 20:28:28;;;;;;;;;;;;;;;-3.29;57.19;98580.59;10355600;28;20482;-57
2021/12/21 20:33:27;;;;;;;23.23;14.73;;;;;;;-3.39;57.80;98579.13;10355997;28;20447;-57
2021/12/21 20:38:26;;;;;;;32.78;19.77;;;;;;;-3.45;58.07;98603.19;10360410;28;20898;-57
2021/12/21 20:43:25;;;;;;;36.45;18.33;;;;;;;-3.58;57.10;98568.50;10361362;28;20119;-57
2021/12/21 20:48:27;;;;;;;32.88;18.85;;;;;;;-3.47;57.91;98590.41;10355811;28;20044;-57
2021/12/21 20:53:26;;;;;;;43.72;20.25;;;;;;;-3.46;58.17;98597.25;10359636;28;20652;-57
2021/12/21 20:58:25;;;;;;;;;;;;;;;-3.51;58.79;98595.16;10357932;28;20036;-57
2021/12/21 21:03:27;;;;;;;34.17;18.35;;;;;;;-3.56;58.50;98605.88;10358423;28;19927;-59
2021/12/21 21:08:26;;;;;;;36.80;19.73;;;;;;;-3.61;58.16;98602.16;10358927;28;20041;-57
2021/12/21 21:13:25;;;;;;;32.55;18.33;;;;;;;-3.77;58.67;98585.00;10357709;28;20926;-57
2021/12/21 21:18:24;;;;;;;36.13;20.25;;;;;;;-3.75;59.25;98607.94;10358797;28;20047;-56
2021/12/21 21:23:23;;;;;;;38.95;21.10;;;;;;;-3.84;59.54;98603.09;10357886;28;20155;-57
2021/12/21 21:28:22;;;;;;;34.63;20.77;;;;;;;-3.84;59.23;98617.44;10356316;28;20066;-57
2021/12/21 21:33:22;;;;;;;39.85;21.92;;;;;;;-3.87;59.66;98620.66;10358576;28;20430;-57
2021/12/21 21:38:21;;;;;;;51.17;30.65;;;;;;;-3.97;59.79;98629.28;10358448;28;20037;-57
2021/12/21 21:43:20;;;;;;;62.47;32.00;;;;;;;-4.14;60.78;98603.53;10355417;28;20115;-57
2021/12/21 21:48:26;;;;;;;88.72;48.70;;;;;;;-4.63;61.28;98542.69;10358785;28;20039;-57
2021/12/21 21:58:34;;;;;;;84.22;45.72;;;;;;;-4.31;62.23;98630.22;10353963;28;20148;-57
2021/12/21 22:03:34;;;;;;;95.35;46.33;;;;;;;-4.31;62.16;98637.81;10354135;28;20390;-57
2021/12/21 22:08:33;;;;;;;31.60;17.48;;;;;;;-4.35;60.96;98634.19;10352591;28;20060;-57
2021/12/21 22:13:32;;;;;;;119.63;59.85;;;;;;;-4.45;63.54;98640.25;10357081;28;20182;-57
2021/12/21 22:18:31;;;;;;;119.40;61.33;;;;;;;-4.53;63.61;98620.22;10355298;28;20033;-57
2021/12/21 22:23:34;;;;;;;97.15;47.95;;;;;;;-4.43;63.24;98637.84;10350401;28;20222;-57
2021/12/21 22:28:33;;;;;;;60.33;32.90;;;;;;;-4.46;63.24;98640.16;10356138;28;20041;-57
2021/12/21 22:33:34;;;;;;;54.22;29.05;;;;;;;-4.52;63.70;98632.97;10358054;28;20120;-56
2021/12/21 22:38:34;;;;;;;50.53;27.60;;;;;;;-4.56;63.32;98637.72;10355112;28;22022;-57
2021/12/21 22:43:33;;;;;;;54.45;29.80;;;;;;;-4.65;63.99;98643.03;10357768;28;20045;-57
2021/12/21 22:48:32;;;;;;;63.90;35.13;;;;;;;-4.64;63.87;98635.50;10357929;28;20033;-59
2021/12/21 22:53:31;;;;;;;60.85;35.50;;;;;;;-4.72;65.35;98626.50;10356443;28;20155;-57
2021/12/21 22:58:34;;;;;;;64.18;33.47;;;;;;;-4.86;66.42;98627.16;10355306;28;20136;-57
2021/12/21 23:03:34;;;;;;;47.67;24.70;;;;;;;-4.89;66.31;98635.38;10355620;28;20127;-59
2021/12/21 23:08:33;;;;;;;39.90;21.80;;;;;;;-4.92;66.39;98627.56;10355128;28;20093;-57
2021/12/21 23:13:35;;;;;;;41.92;23.23;;;;;;;-4.95;65.49;98629.00;10356531;28;20163;-57
2021/12/21 23:18:35;;;;;;;39.40;21.42;;;;;;;-5.04;66.80;98617.41;10357184;28;20159;-57
2021/12/21 23:23:34;;;;;;;57.65;33.85;;;;;;;-5.26;66.81;98586.25;10354651;28;20037;-57
2021/12/21 23:28:33;;;;;;;31.30;16.38;;;;;;;-5.17;67.30;98624.88;10354678;28;20521;-57
2021/12/21 23:33:34;;;;;;;35.30;17.35;;;;;;;-5.30;67.43;98612.09;10355545;28;20140;-57
2021/12/21 23:38:33;;;;;;;45.55;23.17;;;;;;;-5.25;66.87;98628.50;10356754;28;20136;-56
2021/12/21 23:43:32;;;;;;;25.77;14.98;;;;;;;-5.34;68.16;98618.56;10357594;28;20116;-57
2021/12/21 23:48:31;;;;;;;28.42;15.77;;;;;;;-5.38;68.23;98620.75;10357224;28;20138;-57
2021/12/21 23:53:30;;;;;;;40.00;21.80;;;;;;;-5.49;68.31;98620.84;10357329;28;20139;-57
2021/12/21 23:58:30;;;;;;;64.45;30.08;;;;;;;-5.63;69.26;98607.94;10356360;28;20127;-57
